sensor_id;sensor_type;location;lat;lon;timestamp;temperature;humidity
4390;DHT22;2209;48.982;8.406;2023-05-10T00:01:52;16.50;99.90
4390;DHT22;2209;48.982;8.406;2023-05-10T00:04:14;16.40;99.90
4390;DHT22;2209;48.982;8.406;2023-05-10T00:06:36;16.30;99.90
4390;DHT22;2209;48.982;8.406;2023-05-10T00:08:58;16.30;99.90
4390;DHT22;2209;48.982;8.406;2023-05-10T00:11:20;16.30;99.90
4390;DHT22;2209;48.982;8.406;2023-05-10T00:13:42;16.30;99.90
4390;DHT22;2209;48.982;8.406;2023-05-10T00:16:06;16.30;99.90
4390;DHT22;2209;48.982;8.406;2023-05-10T00:18:28;16.40;99.90
4390;DHT22;2209;48.982;8.406;2023-05-10T00:20:50;16.30;99.90
4390;DHT22;2209;48.982;8.406;2023-05-10T00:23:13;16.30;99.90
4390;DHT22;2209;48.982;8.406;2023-05-10T00:25:35;16.30;99.90
4390;DHT22;2209;48.982;8.406;2023-05-10T00:27:57;16.30;99.90
4390;DHT22;2209;48.982;8.406;2023-05-10T00:30:19;16.30;99.90
4390;DHT22;2209;48.982;8.406;2023-05-10T00:32:43;16.30;99.90
4390;DHT22;2209;48.982;8.406;2023-05-10T00:35:05;16.20;99.90
4390;DHT22;2209;48.982;8.406;2023-05-10T00:37:28;16.30;99.90
4390;DHT22;2209;48.982;8.406;2023-05-10T00:39:50;16.30;99.90
4390;DHT22;2209;48.982;8.406;2023-05-10T00:42:13;16.20;99.90
4390;DHT22;2209;48.982;8.406;2023-05-10T00:44:35;16.20;99.90
4390;DHT22;2209;48.982;8.406;2023-05-10T00:46:58;16.10;99.90
4390;DHT22;2209;48.982;8.406;2023-05-10T00:49:22;16.10;99.90
4390;DHT22;2209;48.982;8.406;2023-05-10T00:51:44;16.10;99.90
4390;DHT22;2209;48.982;8.406;2023-05-10T00:54:06;16.10;99.90
4390;DHT22;2209;48.982;8.406;2023-05-10T00:56:29;16.00;99.90
4390;DHT22;2209;48.982;8.406;2023-05-10T00:58:51;16.00;99.90
4390;DHT22;2209;48.982;8.406;2023-05-10T01:01:14;16.00;99.90
4390;DHT22;2209;48.982;8.406;2023-05-10T01:03:36;15.90;99.90
4390;DHT22;2209;48.982;8.406;2023-05-10T01:06:00;15.90;99.90
4390;DHT22;2209;48.982;8.406;2023-05-10T01:08:22;15.90;99.90
4390;DHT22;2209;48.982;8.406;2023-05-10T01:10:44;15.90;99.90
4390;DHT22;2209;48.982;8.406;2023-05-10T01:13:07;15.90;99.90
4390;DHT22;2209;48.982;8.406;2023-05-10T01:15:29;15.80;99.90
4390;DHT22;2209;48.982;8.406;2023-05-10T01:17:52;15.90;99.90
4390;DHT22;2209;48.982;8.406;2023-05-10T01:20:15;15.90;99.90
4390;DHT22;2209;48.982;8.406;2023-05-10T01:22:51;15.90;99.90
4390;DHT22;2209;48.982;8.406;2023-05-10T01:25:38;15.90;99.90
4390;DHT22;2209;48.982;8.406;2023-05-10T01:28:23;15.90;99.90
4390;DHT22;2209;48.982;8.406;2023-05-10T01:31:06;15.80;99.90
4390;DHT22;2209;48.982;8.406;2023-05-10T01:33:35;15.80;99.90
4390;DHT22;2209;48.982;8.406;2023-05-10T01:36:05;15.70;99.90
4390;DHT22;2209;48.982;8.406;2023-05-10T01:38:36;15.70;99.90
4390;DHT22;2209;48.982;8.406;2023-05-10T01:41:05;15.60;99.90
4390;DHT22;2209;48.982;8.406;2023-05-10T01:43:33;15.60;99.90
4390;DHT22;2209;48.982;8.406;2023-05-10T01:46:02;15.50;99.90
4390;DHT22;2209;48.982;8.406;2023-05-10T01:48:32;15.60;99.90
4390;DHT22;2209;48.982;8.406;2023-05-10T01:50:56;15.50;99.90
4390;DHT22;2209;48.982;8.406;2023-05-10T01:53:20;15.60;99.90
4390;DHT22;2209;48.982;8.406;2023-05-10T01:55:46;15.60;99.90
4390;DHT22;2209;48.982;8.406;2023-05-10T01:58:12;15.60;99.90
4390;DHT22;2209;48.982;8.406;2023-05-10T02:00:35;15.60;99.90
4390;DHT22;2209;48.982;8.406;2023-05-10T02:03:05;15.70;99.90
4390;DHT22;2209;48.982;8.406;2023-05-10T02:05:29;15.70;99.90
4390;DHT22;2209;48.982;8.406;2023-05-10T02:07:52;15.60;99.90
4390;DHT22;2209;48.982;8.406;2023-05-10T02:10:15;15.60;99.90
4390;DHT22;2209;48.982;8.406;2023-05-10T02:12:41;15.60;99.90
4390;DHT22;2209;48.982;8.406;2023-05-10T02:15:06;15.70;99.90
4390;DHT22;2209;48.982;8.406;2023-05-10T02:17:30;15.60;99.90
4390;DHT22;2209;48.982;8.406;2023-05-10T02:19:54;15.60;99.90
4390;DHT22;2209;48.982;8.406;2023-05-10T02:22:19;15.60;99.90
4390;DHT22;2209;48.982;8.406;2023-05-10T02:24:42;15.50;99.90
4390;DHT22;2209;48.982;8.406;2023-05-10T02:27:05;15.60;99.90
4390;DHT22;2209;48.982;8.406;2023-05-10T02:29:28;15.50;99.90
4390;DHT22;2209;48.982;8.406;2023-05-10T02:31:52;15.50;99.90
4390;DHT22;2209;48.982;8.406;2023-05-10T02:34:15;15.60;99.90
4390;DHT22;2209;48.982;8.406;2023-05-10T02:36:40;15.60;99.90
4390;DHT22;2209;48.982;8.406;2023-05-10T02:39:04;15.60;99.90
4390;DHT22;2209;48.982;8.406;2023-05-10T02:41:31;15.60;99.90
4390;DHT22;2209;48.982;8.406;2023-05-10T02:43:56;15.60;99.90
4390;DHT22;2209;48.982;8.406;2023-05-10T02:46:21;15.50;99.90
4390;DHT22;2209;48.982;8.406;2023-05-10T02:48:43;15.60;99.90
4390;DHT22;2209;48.982;8.406;2023-05-10T02:51:07;15.60;99.90
4390;DHT22;2209;48.982;8.406;2023-05-10T02:53:31;15.60;99.90
4390;DHT22;2209;48.982;8.406;2023-05-10T02:55:58;15.60;99.90
4390;DHT22;2209;48.982;8.406;2023-05-10T02:58:21;15.70;99.90
4390;DHT22;2209;48.982;8.406;2023-05-10T03:00:43;15.70;99.90
4390;DHT22;2209;48.982;8.406;2023-05-10T03:03:06;15.70;99.90
4390;DHT22;2209;48.982;8.406;2023-05-10T03:05:28;15.80;99.90
4390;DHT22;2209;48.982;8.406;2023-05-10T03:07:50;15.80;99.90
4390;DHT22;2209;48.982;8.406;2023-05-10T03:10:13;15.80;99.90
4390;DHT22;2209;48.982;8.406;2023-05-10T03:12:51;15.70;99.90
4390;DHT22;2209;48.982;8.406;2023-05-10T03:15:19;15.70;99.90
4390;DHT22;2209;48.982;8.406;2023-05-10T03:17:49;15.60;99.90
4390;DHT22;2209;48.982;8.406;2023-05-10T03:20:21;15.60;99.90
4390;DHT22;2209;48.982;8.406;2023-05-10T03:22:47;15.60;99.90
4390;DHT22;2209;48.982;8.406;2023-05-10T03:25:10;15.50;99.90
4390;DHT22;2209;48.982;8.406;2023-05-10T03:27:34;15.40;99.90
4390;DHT22;2209;48.982;8.406;2023-05-10T03:29:58;15.40;99.90
4390;DHT22;2209;48.982;8.406;2023-05-10T03:32:21;15.40;99.90
4390;DHT22;2209;48.982;8.406;2023-05-10T03:34:44;15.30;99.90
4390;DHT22;2209;48.982;8.406;2023-05-10T03:37:06;15.30;99.90
4390;DHT22;2209;48.982;8.406;2023-05-10T03:39:28;15.30;99.90
4390;DHT22;2209;48.982;8.406;2023-05-10T03:41:50;15.30;99.90
4390;DHT22;2209;48.982;8.406;2023-05-10T03:44:12;15.30;99.90
4390;DHT22;2209;48.982;8.406;2023-05-10T03:46:35;15.20;99.90
4390;DHT22;2209;48.982;8.406;2023-05-10T03:48:57;15.20;99.90
4390;DHT22;2209;48.982;8.406;2023-05-10T03:51:20;15.20;99.90
4390;DHT22;2209;48.982;8.406;2023-05-10T03:53:42;15.20;99.90
4390;DHT22;2209;48.982;8.406;2023-05-10T03:56:05;15.20;99.90
4390;DHT22;2209;48.982;8.406;2023-05-10T03:58:27;15.20;99.90
4390;DHT22;2209;48.982;8.406;2023-05-10T04:00:51;15.20;99.90
4390;DHT22;2209;48.982;8.406;2023-05-10T04:03:14;15.20;99.90
4390;DHT22;2209;48.982;8.406;2023-05-10T04:05:36;15.10;99.90
4390;DHT22;2209;48.982;8.406;2023-05-10T04:07:58;15.10;99.90
4390;DHT22;2209;48.982;8.406;2023-05-10T04:10:20;15.10;99.90
4390;DHT22;2209;48.982;8.406;2023-05-10T04:12:42;15.10;99.90
4390;DHT22;2209;48.982;8.406;2023-05-10T04:15:06;15.10;99.90
4390;DHT22;2209;48.982;8.406;2023-05-10T04:17:28;15.10;99.90
4390;DHT22;2209;48.982;8.406;2023-05-10T04:19:51;15.10;99.90
4390;DHT22;2209;48.982;8.406;2023-05-10T04:22:15;15.10;99.90
4390;DHT22;2209;48.982;8.406;2023-05-10T04:24:38;15.10;99.90
4390;DHT22;2209;48.982;8.406;2023-05-10T04:27:00;15.10;99.90
4390;DHT22;2209;48.982;8.406;2023-05-10T04:29:22;15.20;99.90
4390;DHT22;2209;48.982;8.406;2023-05-10T04:31:44;15.20;99.90
4390;DHT22;2209;48.982;8.406;2023-05-10T04:34:06;15.20;99.90
4390;DHT22;2209;48.982;8.406;2023-05-10T04:36:29;15.10;99.90
4390;DHT22;2209;48.982;8.406;2023-05-10T04:38:53;15.10;99.90
4390;DHT22;2209;48.982;8.406;2023-05-10T04:41:15;15.10;99.90
4390;DHT22;2209;48.982;8.406;2023-05-10T04:43:37;15.10;99.90
4390;DHT22;2209;48.982;8.406;2023-05-10T04:46:00;15.10;99.90
4390;DHT22;2209;48.982;8.406;2023-05-10T04:48:22;15.10;99.90
4390;DHT22;2209;48.982;8.406;2023-05-10T04:50:44;15.10;99.90
4390;DHT22;2209;48.982;8.406;2023-05-10T04:53:07;15.10;99.90
4390;DHT22;2209;48.982;8.406;2023-05-10T04:55:29;15.10;99.90
4390;DHT22;2209;48.982;8.406;2023-05-10T04:57:52;15.20;99.90
4390;DHT22;2209;48.982;8.406;2023-05-10T05:00:16;15.20;99.90
4390;DHT22;2209;48.982;8.406;2023-05-10T05:02:38;15.20;99.90
4390;DHT22;2209;48.982;8.406;2023-05-10T05:05:04;15.20;99.90
4390;DHT22;2209;48.982;8.406;2023-05-10T05:07:26;15.20;99.90
4390;DHT22;2209;48.982;8.406;2023-05-10T05:09:49;15.20;99.90
4390;DHT22;2209;48.982;8.406;2023-05-10T05:12:11;15.20;99.90
4390;DHT22;2209;48.982;8.406;2023-05-10T05:14:34;15.20;99.90
4390;DHT22;2209;48.982;8.406;2023-05-10T05:16:57;15.20;99.90
4390;DHT22;2209;48.982;8.406;2023-05-10T05:19:19;15.20;99.90
4390;DHT22;2209;48.982;8.406;2023-05-10T05:21:41;15.20;99.90
4390;DHT22;2209;48.982;8.406;2023-05-10T05:24:04;15.20;99.90
4390;DHT22;2209;48.982;8.406;2023-05-10T05:26:27;15.20;99.90
4390;DHT22;2209;48.982;8.406;2023-05-10T05:28:49;15.20;99.90
4390;DHT22;2209;48.982;8.406;2023-05-10T05:31:14;15.20;99.90
4390;DHT22;2209;48.982;8.406;2023-05-10T05:33:37;15.20;99.90
4390;DHT22;2209;48.982;8.406;2023-05-10T05:36:00;15.20;99.90
4390;DHT22;2209;48.982;8.406;2023-05-10T05:38:22;15.20;99.90
4390;DHT22;2209;48.982;8.406;2023-05-10T05:40:45;15.20;99.90
4390;DHT22;2209;48.982;8.406;2023-05-10T05:43:08;15.10;99.90
4390;DHT22;2209;48.982;8.406;2023-05-10T05:45:30;15.10;99.90
4390;DHT22;2209;48.982;8.406;2023-05-10T05:47:53;15.10;99.90
4390;DHT22;2209;48.982;8.406;2023-05-10T05:50:15;15.10;99.90
4390;DHT22;2209;48.982;8.406;2023-05-10T05:52:37;15.10;99.90
4390;DHT22;2209;48.982;8.406;2023-05-10T05:54:59;15.10;99.90
4390;DHT22;2209;48.982;8.406;2023-05-10T05:57:21;15.10;99.90
4390;DHT22;2209;48.982;8.406;2023-05-10T05:59:45;15.10;99.90
4390;DHT22;2209;48.982;8.406;2023-05-10T06:02:07;15.10;99.90
4390;DHT22;2209;48.982;8.406;2023-05-10T06:04:29;15.10;99.90
4390;DHT22;2209;48.982;8.406;2023-05-10T06:06:51;15.10;99.90
4390;DHT22;2209;48.982;8.406;2023-05-10T06:09:14;15.10;99.90
4390;DHT22;2209;48.982;8.406;2023-05-10T06:11:36;15.10;99.90
4390;DHT22;2209;48.982;8.406;2023-05-10T06:13:58;15.20;99.90
4390;DHT22;2209;48.982;8.406;2023-05-10T06:16:22;15.30;99.90
4390;DHT22;2209;48.982;8.406;2023-05-10T06:18:44;15.30;99.90
4390;DHT22;2209;48.982;8.406;2023-05-10T06:21:06;15.30;99.90
4390;DHT22;2209;48.982;8.406;2023-05-10T06:23:30;15.30;99.90
4390;DHT22;2209;48.982;8.406;2023-05-10T06:25:52;15.30;99.90
4390;DHT22;2209;48.982;8.406;2023-05-10T06:28:14;15.30;99.90
4390;DHT22;2209;48.982;8.406;2023-05-10T06:30:37;15.30;99.90
4390;DHT22;2209;48.982;8.406;2023-05-10T06:33:00;15.30;99.90
4390;DHT22;2209;48.982;8.406;2023-05-10T06:35:22;15.30;99.90
4390;DHT22;2209;48.982;8.406;2023-05-10T06:37:44;15.30;99.90
4390;DHT22;2209;48.982;8.406;2023-05-10T06:40:08;15.30;99.90
4390;DHT22;2209;48.982;8.406;2023-05-10T06:42:30;15.30;99.90
4390;DHT22;2209;48.982;8.406;2023-05-10T06:44:53;15.30;99.90
4390;DHT22;2209;48.982;8.406;2023-05-10T06:47:15;15.20;99.90
4390;DHT22;2209;48.982;8.406;2023-05-10T06:49:38;15.20;99.90
4390;DHT22;2209;48.982;8.406;2023-05-10T06:52:00;15.30;99.90
4390;DHT22;2209;48.982;8.406;2023-05-10T06:54:22;15.30;99.90
4390;DHT22;2209;48.982;8.406;2023-05-10T06:56:45;15.30;99.90
4390;DHT22;2209;48.982;8.406;2023-05-10T06:59:07;15.30;99.90
4390;DHT22;2209;48.982;8.406;2023-05-10T07:01:29;15.20;99.90
4390;DHT22;2209;48.982;8.406;2023-05-10T07:03:51;15.20;99.90
4390;DHT22;2209;48.982;8.406;2023-05-10T07:06:15;15.20;99.90
4390;DHT22;2209;48.982;8.406;2023-05-10T07:08:37;15.30;99.90
4390;DHT22;2209;48.982;8.406;2023-05-10T07:11:00;15.30;99.90
4390;DHT22;2209;48.982;8.406;2023-05-10T07:13:22;15.30;99.90
4390;DHT22;2209;48.982;8.406;2023-05-10T07:15:44;15.40;99.90
4390;DHT22;2209;48.982;8.406;2023-05-10T07:18:06;15.40;99.90
4390;DHT22;2209;48.982;8.406;2023-05-10T07:20:28;15.40;99.90
4390;DHT22;2209;48.982;8.406;2023-05-10T07:22:52;15.40;99.90
4390;DHT22;2209;48.982;8.406;2023-05-10T07:25:14;15.40;99.90
4390;DHT22;2209;48.982;8.406;2023-05-10T07:27:36;15.40;99.90
4390;DHT22;2209;48.982;8.406;2023-05-10T07:29:58;15.40;99.90
4390;DHT22;2209;48.982;8.406;2023-05-10T07:32:21;15.40;99.90
4390;DHT22;2209;48.982;8.406;2023-05-10T07:34:43;15.40;99.90
4390;DHT22;2209;48.982;8.406;2023-05-10T07:37:05;15.40;99.90
4390;DHT22;2209;48.982;8.406;2023-05-10T07:39:29;15.40;99.90
4390;DHT22;2209;48.982;8.406;2023-05-10T07:41:51;15.40;99.90
4390;DHT22;2209;48.982;8.406;2023-05-10T07:44:13;15.40;99.90
4390;DHT22;2209;48.982;8.406;2023-05-10T07:46:36;15.40;99.90
4390;DHT22;2209;48.982;8.406;2023-05-10T07:48:58;15.40;99.90
4390;DHT22;2209;48.982;8.406;2023-05-10T07:51:20;15.40;99.90
4390;DHT22;2209;48.982;8.406;2023-05-10T07:53:42;15.30;99.90
4390;DHT22;2209;48.982;8.406;2023-05-10T07:56:21;15.30;99.90
4390;DHT22;2209;48.982;8.406;2023-05-10T07:58:43;15.30;99.90
4390;DHT22;2209;48.982;8.406;2023-05-10T08:01:06;15.40;99.90
4390;DHT22;2209;48.982;8.406;2023-05-10T08:03:28;15.40;99.90
4390;DHT22;2209;48.982;8.406;2023-05-10T08:05:50;15.40;99.90
4390;DHT22;2209;48.982;8.406;2023-05-10T08:08:12;15.40;99.90
4390;DHT22;2209;48.982;8.406;2023-05-10T08:10:34;15.40;99.90
4390;DHT22;2209;48.982;8.406;2023-05-10T08:12:58;15.40;99.90
4390;DHT22;2209;48.982;8.406;2023-05-10T08:15:20;15.40;99.90
4390;DHT22;2209;48.982;8.406;2023-05-10T08:17:42;15.40;99.90
4390;DHT22;2209;48.982;8.406;2023-05-10T08:20:05;15.40;99.90
4390;DHT22;2209;48.982;8.406;2023-05-10T08:22:28;15.50;99.90
4390;DHT22;2209;48.982;8.406;2023-05-10T08:24:50;15.50;99.90
4390;DHT22;2209;48.982;8.406;2023-05-10T08:27:12;15.50;99.90
4390;DHT22;2209;48.982;8.406;2023-05-10T08:29:36;15.50;99.90
4390;DHT22;2209;48.982;8.406;2023-05-10T08:31:59;15.50;99.90
4390;DHT22;2209;48.982;8.406;2023-05-10T08:34:21;15.50;99.90
4390;DHT22;2209;48.982;8.406;2023-05-10T08:36:44;15.50;99.90
4390;DHT22;2209;48.982;8.406;2023-05-10T08:39:07;15.50;99.90
4390;DHT22;2209;48.982;8.406;2023-05-10T08:41:30;15.50;99.90
4390;DHT22;2209;48.982;8.406;2023-05-10T08:43:55;15.50;99.90
4390;DHT22;2209;48.982;8.406;2023-05-10T08:46:20;15.50;99.90
4390;DHT22;2209;48.982;8.406;2023-05-10T08:48:43;15.50;99.90
4390;DHT22;2209;48.982;8.406;2023-05-10T08:51:06;15.50;99.90
4390;DHT22;2209;48.982;8.406;2023-05-10T08:53:31;15.50;99.90
4390;DHT22;2209;48.982;8.406;2023-05-10T08:55:55;15.50;99.90
4390;DHT22;2209;48.982;8.406;2023-05-10T08:58:17;15.50;99.90
4390;DHT22;2209;48.982;8.406;2023-05-10T09:00:40;15.60;99.90
4390;DHT22;2209;48.982;8.406;2023-05-10T09:03:04;15.60;99.90
4390;DHT22;2209;48.982;8.406;2023-05-10T09:05:26;15.60;99.90
4390;DHT22;2209;48.982;8.406;2023-05-10T09:07:48;15.60;99.90
4390;DHT22;2209;48.982;8.406;2023-05-10T09:10:11;15.60;99.90
4390;DHT22;2209;48.982;8.406;2023-05-10T09:12:35;15.60;99.90
4390;DHT22;2209;48.982;8.406;2023-05-10T09:14:58;15.70;99.90
4390;DHT22;2209;48.982;8.406;2023-05-10T09:17:23;15.70;99.90
4390;DHT22;2209;48.982;8.406;2023-05-10T09:19:47;15.70;99.90
4390;DHT22;2209;48.982;8.406;2023-05-10T09:22:09;15.70;99.90
4390;DHT22;2209;48.982;8.406;2023-05-10T09:24:32;15.70;99.90
4390;DHT22;2209;48.982;8.406;2023-05-10T09:26:56;15.70;99.90
4390;DHT22;2209;48.982;8.406;2023-05-10T09:29:19;15.60;99.90
4390;DHT22;2209;48.982;8.406;2023-05-10T09:31:46;15.60;99.90
4390;DHT22;2209;48.982;8.406;2023-05-10T09:34:08;15.60;99.90
4390;DHT22;2209;48.982;8.406;2023-05-10T09:36:32;15.60;99.90
4390;DHT22;2209;48.982;8.406;2023-05-10T09:38:54;15.60;99.90
4390;DHT22;2209;48.982;8.406;2023-05-10T09:41:17;15.50;99.90
4390;DHT22;2209;48.982;8.406;2023-05-10T09:43:40;15.50;99.90
4390;DHT22;2209;48.982;8.406;2023-05-10T09:46:08;15.50;99.90
4390;DHT22;2209;48.982;8.406;2023-05-10T09:48:30;15.50;99.90
4390;DHT22;2209;48.982;8.406;2023-05-10T09:50:56;15.50;99.90
4390;DHT22;2209;48.982;8.406;2023-05-10T09:53:20;15.50;99.90
4390;DHT22;2209;48.982;8.406;2023-05-10T09:55:44;15.50;99.90
4390;DHT22;2209;48.982;8.406;2023-05-10T09:58:07;15.50;99.90
4390;DHT22;2209;48.982;8.406;2023-05-10T10:00:36;15.50;99.90
4390;DHT22;2209;48.982;8.406;2023-05-10T10:02:59;15.60;99.90
4390;DHT22;2209;48.982;8.406;2023-05-10T10:05:22;15.60;99.90
4390;DHT22;2209;48.982;8.406;2023-05-10T10:07:49;15.60;99.90
4390;DHT22;2209;48.982;8.406;2023-05-10T10:10:14;15.60;99.90
4390;DHT22;2209;48.982;8.406;2023-05-10T10:12:36;15.60;99.90
4390;DHT22;2209;48.982;8.406;2023-05-10T10:14:59;15.70;99.90
4390;DHT22;2209;48.982;8.406;2023-05-10T10:17:22;15.70;99.90
4390;DHT22;2209;48.982;8.406;2023-05-10T10:19:45;15.80;99.90
4390;DHT22;2209;48.982;8.406;2023-05-10T10:22:08;15.80;99.90
4390;DHT22;2209;48.982;8.406;2023-05-10T10:24:32;15.80;99.90
4390;DHT22;2209;48.982;8.406;2023-05-10T10:26:59;15.80;99.90
4390;DHT22;2209;48.982;8.406;2023-05-10T10:29:33;15.80;99.90
4390;DHT22;2209;48.982;8.406;2023-05-10T10:32:03;15.80;99.90
4390;DHT22;2209;48.982;8.406;2023-05-10T10:34:30;15.70;99.90
4390;DHT22;2209;48.982;8.406;2023-05-10T10:36:54;15.70;99.90
4390;DHT22;2209;48.982;8.406;2023-05-10T10:39:18;15.70;99.90
4390;DHT22;2209;48.982;8.406;2023-05-10T10:41:49;15.80;99.90
4390;DHT22;2209;48.982;8.406;2023-05-10T10:44:37;15.80;99.90
4390;DHT22;2209;48.982;8.406;2023-05-10T10:47:07;15.80;99.90
4390;DHT22;2209;48.982;8.406;2023-05-10T10:49:32;15.90;99.90
4390;DHT22;2209;48.982;8.406;2023-05-10T10:52:20;15.90;99.90
4390;DHT22;2209;48.982;8.406;2023-05-10T10:54:50;15.90;99.90
4390;DHT22;2209;48.982;8.406;2023-05-10T10:57:13;16.00;99.90
4390;DHT22;2209;48.982;8.406;2023-05-10T10:59:41;16.00;99.90
4390;DHT22;2209;48.982;8.406;2023-05-10T11:02:06;15.90;99.90
4390;DHT22;2209;48.982;8.406;2023-05-10T11:04:28;15.90;99.90
4390;DHT22;2209;48.982;8.406;2023-05-10T11:07:16;15.90;99.90
4390;DHT22;2209;48.982;8.406;2023-05-10T11:09:39;15.90;99.90
4390;DHT22;2209;48.982;8.406;2023-05-10T11:12:08;15.90;99.90
4390;DHT22;2209;48.982;8.406;2023-05-10T11:14:31;16.00;99.90
4390;DHT22;2209;48.982;8.406;2023-05-10T11:16:55;16.00;99.90
4390;DHT22;2209;48.982;8.406;2023-05-10T11:19:18;16.00;99.90
4390;DHT22;2209;48.982;8.406;2023-05-10T11:21:48;16.00;99.90
4390;DHT22;2209;48.982;8.406;2023-05-10T11:24:13;16.00;99.90
4390;DHT22;2209;48.982;8.406;2023-05-10T11:26:36;16.00;99.90
4390;DHT22;2209;48.982;8.406;2023-05-10T11:28:59;16.00;99.90
4390;DHT22;2209;48.982;8.406;2023-05-10T11:31:23;16.00;99.90
4390;DHT22;2209;48.982;8.406;2023-05-10T11:33:50;16.00;99.90
4390;DHT22;2209;48.982;8.406;2023-05-10T11:36:13;16.10;99.90
4390;DHT22;2209;48.982;8.406;2023-05-10T11:38:35;16.10;99.90
4390;DHT22;2209;48.982;8.406;2023-05-10T11:40:57;16.10;99.90
4390;DHT22;2209;48.982;8.406;2023-05-10T11:43:23;16.10;99.90
4390;DHT22;2209;48.982;8.406;2023-05-10T11:45:46;16.10;99.90
4390;DHT22;2209;48.982;8.406;2023-05-10T11:48:08;16.10;99.90
4390;DHT22;2209;48.982;8.406;2023-05-10T11:50:32;16.10;99.90
4390;DHT22;2209;48.982;8.406;2023-05-10T11:52:55;16.10;99.90
4390;DHT22;2209;48.982;8.406;2023-05-10T11:55:17;16.10;99.90
4390;DHT22;2209;48.982;8.406;2023-05-10T11:57:40;16.10;99.90
4390;DHT22;2209;48.982;8.406;2023-05-10T12:00:04;16.10;99.90
4390;DHT22;2209;48.982;8.406;2023-05-10T12:02:26;16.10;99.90
4390;DHT22;2209;48.982;8.406;2023-05-10T12:04:48;16.10;99.90
4390;DHT22;2209;48.982;8.406;2023-05-10T12:07:12;16.10;99.90
4390;DHT22;2209;48.982;8.406;2023-05-10T12:09:34;16.20;99.90
4390;DHT22;2209;48.982;8.406;2023-05-10T12:11:56;16.20;99.90
4390;DHT22;2209;48.982;8.406;2023-05-10T12:14:18;16.20;99.90
4390;DHT22;2209;48.982;8.406;2023-05-10T12:16:43;16.20;99.90
4390;DHT22;2209;48.982;8.406;2023-05-10T12:19:05;16.20;99.90
4390;DHT22;2209;48.982;8.406;2023-05-10T12:21:28;16.20;99.90
4390;DHT22;2209;48.982;8.406;2023-05-10T12:23:53;16.30;99.90
4390;DHT22;2209;48.982;8.406;2023-05-10T12:26:16;16.30;99.90
4390;DHT22;2209;48.982;8.406;2023-05-10T12:28:38;16.30;99.90
4390;DHT22;2209;48.982;8.406;2023-05-10T12:31:01;16.40;99.90
4390;DHT22;2209;48.982;8.406;2023-05-10T12:33:24;16.40;99.90
4390;DHT22;2209;48.982;8.406;2023-05-10T12:35:47;16.40;99.90
4390;DHT22;2209;48.982;8.406;2023-05-10T12:38:24;16.40;99.90
4390;DHT22;2209;48.982;8.406;2023-05-10T12:40:48;16.40;99.90
4390;DHT22;2209;48.982;8.406;2023-05-10T12:43:10;16.40;99.90
4390;DHT22;2209;48.982;8.406;2023-05-10T12:45:32;16.50;99.90
4390;DHT22;2209;48.982;8.406;2023-05-10T12:47:55;16.50;99.90
4390;DHT22;2209;48.982;8.406;2023-05-10T12:50:17;16.50;99.90
4390;DHT22;2209;48.982;8.406;2023-05-10T12:52:39;16.60;99.90
4390;DHT22;2209;48.982;8.406;2023-05-10T12:55:02;16.60;99.90
4390;DHT22;2209;48.982;8.406;2023-05-10T12:57:25;16.60;99.90
4390;DHT22;2209;48.982;8.406;2023-05-10T12:59:47;16.60;99.90
4390;DHT22;2209;48.982;8.406;2023-05-10T13:02:10;16.60;99.90
4390;DHT22;2209;48.982;8.406;2023-05-10T13:04:32;16.60;99.90
4390;DHT22;2209;48.982;8.406;2023-05-10T13:06:54;16.60;99.90
4390;DHT22;2209;48.982;8.406;2023-05-10T13:09:19;16.70;99.90
4390;DHT22;2209;48.982;8.406;2023-05-10T13:11:42;16.70;99.90
4390;DHT22;2209;48.982;8.406;2023-05-10T13:14:05;16.70;99.90
4390;DHT22;2209;48.982;8.406;2023-05-10T13:16:27;16.70;99.90
4390;DHT22;2209;48.982;8.406;2023-05-10T13:18:49;16.80;99.90
4390;DHT22;2209;48.982;8.406;2023-05-10T13:21:12;16.80;99.90
4390;DHT22;2209;48.982;8.406;2023-05-10T13:23:34;16.80;99.90
4390;DHT22;2209;48.982;8.406;2023-05-10T13:25:56;16.80;99.90
4390;DHT22;2209;48.982;8.406;2023-05-10T13:28:18;16.80;99.90
4390;DHT22;2209;48.982;8.406;2023-05-10T13:30:42;16.80;99.90
4390;DHT22;2209;48.982;8.406;2023-05-10T13:33:04;16.80;99.90
4390;DHT22;2209;48.982;8.406;2023-05-10T13:35:26;16.90;99.90
4390;DHT22;2209;48.982;8.406;2023-05-10T13:37:48;16.90;99.90
4390;DHT22;2209;48.982;8.406;2023-05-10T13:40:10;16.90;99.90
4390;DHT22;2209;48.982;8.406;2023-05-10T13:42:33;16.90;99.90
4390;DHT22;2209;48.982;8.406;2023-05-10T13:44:55;17.00;99.90
4390;DHT22;2209;48.982;8.406;2023-05-10T13:47:18;17.00;99.90
4390;DHT22;2209;48.982;8.406;2023-05-10T13:49:42;17.00;99.90
4390;DHT22;2209;48.982;8.406;2023-05-10T13:52:04;17.00;99.90
4390;DHT22;2209;48.982;8.406;2023-05-10T13:54:27;17.00;99.90
4390;DHT22;2209;48.982;8.406;2023-05-10T13:56:51;16.90;99.90
4390;DHT22;2209;48.982;8.406;2023-05-10T13:59:13;17.00;99.90
4390;DHT22;2209;48.982;8.406;2023-05-10T14:01:36;17.00;99.90
4390;DHT22;2209;48.982;8.406;2023-05-10T14:04:00;17.10;99.90
4390;DHT22;2209;48.982;8.406;2023-05-10T14:06:22;17.10;99.90
4390;DHT22;2209;48.982;8.406;2023-05-10T14:08:44;17.10;99.90
4390;DHT22;2209;48.982;8.406;2023-05-10T14:11:06;17.10;99.90
4390;DHT22;2209;48.982;8.406;2023-05-10T14:13:29;17.10;99.90
4390;DHT22;2209;48.982;8.406;2023-05-10T14:15:52;17.10;99.90
4390;DHT22;2209;48.982;8.406;2023-05-10T14:18:14;17.10;99.90
4390;DHT22;2209;48.982;8.406;2023-05-10T14:20:37;17.10;99.90
4390;DHT22;2209;48.982;8.406;2023-05-10T14:23:00;17.10;99.90
4390;DHT22;2209;48.982;8.406;2023-05-10T14:25:22;17.10;99.90
4390;DHT22;2209;48.982;8.406;2023-05-10T14:27:44;17.10;99.90
4390;DHT22;2209;48.982;8.406;2023-05-10T14:30:08;17.10;99.90
4390;DHT22;2209;48.982;8.406;2023-05-10T14:32:30;17.10;99.90
4390;DHT22;2209;48.982;8.406;2023-05-10T14:34:52;17.10;99.90
4390;DHT22;2209;48.982;8.406;2023-05-10T14:37:16;17.20;99.90
4390;DHT22;2209;48.982;8.406;2023-05-10T14:39:38;17.20;99.90
4390;DHT22;2209;48.982;8.406;2023-05-10T14:42:01;17.20;99.90
4390;DHT22;2209;48.982;8.406;2023-05-10T14:44:23;17.30;99.90
4390;DHT22;2209;48.982;8.406;2023-05-10T14:46:45;17.30;99.90
4390;DHT22;2209;48.982;8.406;2023-05-10T14:49:08;17.40;99.90
4390;DHT22;2209;48.982;8.406;2023-05-10T14:51:30;17.40;99.90
4390;DHT22;2209;48.982;8.406;2023-05-10T14:53:53;17.50;99.90
4390;DHT22;2209;48.982;8.406;2023-05-10T14:56:16;17.60;99.90
4390;DHT22;2209;48.982;8.406;2023-05-10T14:58:38;17.60;99.90
4390;DHT22;2209;48.982;8.406;2023-05-10T15:01:00;17.70;99.90
4390;DHT22;2209;48.982;8.406;2023-05-10T15:03:22;17.70;99.90
4390;DHT22;2209;48.982;8.406;2023-05-10T15:05:44;17.70;99.90
4390;DHT22;2209;48.982;8.406;2023-05-10T15:08:06;17.70;99.90
4390;DHT22;2209;48.982;8.406;2023-05-10T15:10:31;17.70;99.90
4390;DHT22;2209;48.982;8.406;2023-05-10T15:12:54;17.70;99.90
4390;DHT22;2209;48.982;8.406;2023-05-10T15:15:16;17.70;99.90
4390;DHT22;2209;48.982;8.406;2023-05-10T15:17:38;17.70;99.90
4390;DHT22;2209;48.982;8.406;2023-05-10T15:20:00;17.70;99.90
4390;DHT22;2209;48.982;8.406;2023-05-10T15:22:23;17.70;99.90
4390;DHT22;2209;48.982;8.406;2023-05-10T15:24:45;17.80;99.90
4390;DHT22;2209;48.982;8.406;2023-05-10T15:27:09;17.70;99.90
4390;DHT22;2209;48.982;8.406;2023-05-10T15:29:31;17.70;99.90
4390;DHT22;2209;48.982;8.406;2023-05-10T15:31:55;17.70;99.90
4390;DHT22;2209;48.982;8.406;2023-05-10T15:34:17;17.70;99.90
4390;DHT22;2209;48.982;8.406;2023-05-10T15:36:39;17.70;99.90
4390;DHT22;2209;48.982;8.406;2023-05-10T15:39:02;17.60;99.90